Terminal Aerodrome Forecast
Issued by NWS

Home | Current Version | Previous Version | Text Only | Print | Product List | Glossary Off
Versions: 1 2 3 4 5 6 7 8 9 10 11 12 13 14 15 16

000
FTUS43 KTOP 250500
TAFFOE
TAF
KFOE 250527Z 2506/2606 19009KT P6SM SCT200
     FM251200 18012KT P6SM SCT200
     FM251600 18019G31KT P6SM BKN250
     FM260000 18012KT P6SM BKN200=

USA.gov is the U.S. government's official web portal to all federal, state and local government web resources and services.